Skip Navigation LinksHome page > Weather > Current weather Skip Navigation Links

Current Weather

Honolulu Intl, Honolulu

For information only: do not use for flight planning or navigation.
Latest weather
Observation time Friday, September 4, 2015 11:53 PM HST
Local time Saturday, September 5, 2015 12:12 AM HST
Flight conditions Visual Meteorological Conditions
Winds
Wind speed calm
Visibility 10 mi.
Sky condition
Ceiling unlimited
Cloud layer few clouds 2,400 ft.
Temperature 80°F
Dewpoint 72°F
Altimeter 29.86 in.Hg
Derived measurements
Relative humidity 76%
Heat index 84°F
Density altitude 1793 ft.
Sea-level pressure 29.86 in.Hg
Climate data
Temperature minimum, last 24 hours 72°F
Temperature maximum, last 24 hours 90°F
Remarks
Automated weather observing station with precipitation discriminator.
METAR PHNL 050953Z 00000KT 10SM FEW024 27/22 A2986 RMK AO2 SLP111 T02670222 403220222

Settings

Location code

InnerDrive.Weather 4.0.5722.1 Release CLR 4.0.30319.34014
Copyright ©2015 Inner Drive Technology. All rights reserved. Portions Copyright ©1986-2015 David Braverman.

Find weather

Site navigation


Skip Navigation Links

Place info

Page info

PayPal - The safer, easier way to pay online!

Return home.

Copyright ©2015 Inner Drive Technology. Purveyors of fine, hand-crafted computer software. Page printed 2015-09-05T10:12:12 UTC.